createdAt,value
2022-10-01T00:02:17.329Z,8.73
2022-10-01T00:04:43.989Z,8.69
2022-10-01T00:07:15.197Z,8.78
2022-10-01T00:09:42.031Z,8.84
2022-10-01T00:12:08.640Z,8.76
2022-10-01T00:14:39.235Z,8.68
2022-10-01T00:17:05.968Z,8.67
2022-10-01T00:19:32.594Z,8.69
2022-10-01T00:21:59.256Z,8.71
2022-10-01T00:24:25.937Z,8.74
2022-10-01T00:26:53.235Z,8.71
2022-10-01T00:29:19.834Z,8.71
2022-10-01T00:31:46.541Z,8.68
2022-10-01T00:34:15.535Z,8.65
2022-10-01T00:36:42.367Z,8.64
2022-10-01T00:39:11.205Z,8.74
2022-10-01T00:41:38.557Z,8.84
2022-10-01T00:44:28.962Z,8.91
2022-10-01T00:46:58.734Z,8.97
2022-10-01T00:49:27.798Z,9.05
2022-10-01T00:51:58.408Z,9.11
2022-10-01T00:54:42.731Z,9.14
2022-10-01T00:57:09.367Z,9.18
2022-10-01T00:59:36.514Z,9.19
2022-10-01T01:02:03.978Z,9.12
2022-10-01T01:04:30.819Z,9.05
2022-10-01T01:06:58.868Z,9.04
2022-10-01T01:09:31.829Z,8.93
2022-10-01T01:12:13.726Z,8.86
2022-10-01T01:14:55.198Z,8.81
2022-10-01T01:17:30.045Z,8.74
2022-10-01T01:20:05.845Z,8.70
2022-10-01T01:22:35.728Z,8.68
2022-10-01T01:25:18.639Z,8.66
2022-10-01T01:28:04.021Z,8.68
2022-10-01T01:30:31.785Z,8.75
2022-10-01T01:33:06.029Z,8.77
2022-10-01T01:35:37.432Z,8.74
2022-10-01T01:38:11.418Z,8.80
2022-10-01T01:40:39.359Z,8.88
2022-10-01T01:43:10.309Z,8.93
2022-10-01T01:45:40.065Z,9.01
2022-10-01T01:48:09.970Z,9.02
2022-10-01T01:50:42.637Z,9.06
2022-10-01T01:53:09.412Z,9.07
2022-10-01T01:55:36.866Z,9.10
2022-10-01T01:58:03.733Z,9.10
2022-10-01T02:00:30.363Z,9.11
2022-10-01T02:02:57.585Z,9.12
2022-10-01T02:05:27.342Z,9.18
2022-10-01T02:08:23.182Z,9.29
2022-10-01T02:11:03.348Z,9.36
2022-10-01T02:13:42.029Z,9.40
2022-10-01T02:16:27.683Z,9.44
2022-10-01T02:19:02.416Z,9.48
2022-10-01T02:21:35.560Z,9.47
2022-10-01T02:24:05.034Z,9.46
2022-10-01T02:26:32.681Z,9.48
2022-10-01T02:29:04.714Z,9.50
2022-10-01T02:31:32.581Z,9.50
2022-10-01T02:34:01.448Z,9.50
2022-10-01T02:36:30.057Z,9.40
2022-10-01T02:38:57.058Z,9.43
2022-10-01T02:41:27.851Z,9.39
2022-10-01T02:44:08.010Z,9.39
2022-10-01T02:46:40.107Z,9.31
2022-10-01T02:49:06.786Z,9.28
2022-10-01T02:51:52.161Z,9.27
2022-10-01T02:54:33.475Z,9.32
2022-10-01T02:57:18.744Z,9.38
2022-10-01T02:59:45.504Z,9.45
2022-10-01T03:02:12.230Z,9.48
2022-10-01T03:04:39.282Z,9.57
2022-10-01T03:07:05.920Z,9.58
2022-10-01T03:09:34.591Z,9.62
2022-10-01T03:12:01.930Z,9.63
2022-10-01T03:14:28.706Z,9.68
2022-10-01T03:16:55.437Z,9.69
2022-10-01T03:19:22.199Z,9.71
2022-10-01T03:21:48.858Z,9.70
2022-10-01T03:24:15.478Z,9.68
2022-10-01T03:26:42.234Z,9.70
2022-10-01T03:29:09.755Z,9.70
2022-10-01T03:31:38.313Z,9.71
2022-10-01T03:34:05.154Z,9.73
2022-10-01T03:36:31.799Z,9.73
2022-10-01T03:38:58.389Z,9.75
2022-10-01T03:41:25.048Z,9.75
2022-10-01T03:43:51.710Z,9.82
2022-10-01T03:46:18.296Z,9.84
2022-10-01T03:48:44.895Z,9.76
2022-10-01T03:51:11.547Z,9.78
2022-10-01T03:53:38.685Z,9.82
2022-10-01T03:56:05.449Z,9.82
2022-10-01T03:58:32.201Z,9.75
2022-10-01T04:01:00.638Z,9.68
2022-10-01T04:03:27.222Z,9.68
2022-10-01T04:05:53.893Z,9.67
2022-10-01T04:08:24.267Z,9.67
2022-10-01T04:10:51.306Z,9.60
2022-10-01T04:13:18.192Z,9.59
2022-10-01T04:15:44.997Z,9.61
2022-10-01T04:18:11.712Z,9.60
2022-10-01T04:20:38.733Z,9.59
2022-10-01T04:23:05.741Z,9.57
2022-10-01T04:25:32.440Z,9.59
2022-10-01T04:28:02.122Z,9.60
2022-10-01T04:30:31.964Z,9.61
2022-10-01T04:32:58.662Z,9.66
2022-10-01T04:35:26.717Z,9.64
2022-10-01T04:38:07.229Z,9.63
2022-10-01T04:40:35.999Z,9.64
2022-10-01T04:43:04.047Z,9.66
2022-10-01T04:45:30.988Z,9.70
2022-10-01T04:47:58.396Z,9.70
2022-10-01T04:50:26.911Z,9.65
2022-10-01T04:52:53.913Z,9.62
2022-10-01T04:55:21.417Z,9.67
2022-10-01T04:57:48.378Z,9.68
2022-10-01T05:00:17.974Z,9.66
2022-10-01T05:02:45.778Z,9.67
2022-10-01T05:05:12.858Z,9.74
2022-10-01T05:07:39.989Z,9.81
2022-10-01T05:10:09.213Z,9.85
2022-10-01T05:12:35.857Z,9.88
2022-10-01T05:15:03.274Z,9.95
2022-10-01T05:17:34.072Z,10.00
2022-10-01T05:20:01.696Z,10.20
2022-10-01T05:22:28.831Z,10.21
2022-10-01T05:24:55.503Z,10.39
2022-10-01T05:27:22.111Z,10.40
2022-10-01T05:29:49.130Z,10.45
2022-10-01T05:32:16.537Z,10.50
2022-10-01T05:34:43.113Z,10.41
2022-10-01T05:37:10.979Z,10.45
2022-10-01T05:39:37.975Z,10.45
2022-10-01T05:42:06.537Z,10.50
2022-10-01T05:44:37.931Z,10.53
2022-10-01T05:47:07.458Z,10.53
2022-10-01T05:49:34.156Z,10.53
2022-10-01T05:52:01.180Z,10.48
2022-10-01T05:54:29.658Z,10.48
2022-10-01T05:56:59.289Z,10.49
2022-10-01T05:59:31.025Z,10.55
2022-10-01T06:01:58.502Z,10.60
2022-10-01T06:04:25.269Z,10.65
2022-10-01T06:06:53.250Z,10.60
2022-10-01T06:09:20.042Z,10.54
2022-10-01T06:11:48.985Z,10.61
2022-10-01T06:14:16.251Z,10.58
2022-10-01T06:16:43.059Z,10.54
2022-10-01T06:19:09.874Z,10.48
2022-10-01T06:21:36.947Z,10.30
2022-10-01T06:24:03.971Z,10.26
2022-10-01T06:26:31.287Z,10.25
2022-10-01T06:28:57.928Z,10.21
2022-10-01T06:31:25.218Z,10.13
2022-10-01T06:33:51.940Z,10.11
2022-10-01T06:36:18.570Z,10.14
2022-10-01T06:38:48.435Z,10.14
2022-10-01T06:41:15.053Z,10.07
2022-10-01T06:43:41.701Z,10.15
2022-10-01T06:46:08.397Z,10.20
2022-10-01T06:48:36.724Z,10.25
2022-10-01T06:51:04.092Z,10.30
2022-10-01T06:53:31.954Z,10.27
2022-10-01T06:56:04.483Z,10.33
2022-10-01T06:58:31.138Z,10.40
2022-10-01T07:01:02.045Z,10.42
2022-10-01T07:03:29.161Z,10.44
2022-10-01T07:06:01.256Z,10.39
2022-10-01T07:08:27.841Z,10.26
2022-10-01T07:10:59.582Z,10.22
2022-10-01T07:13:26.177Z,10.29
2022-10-01T07:15:52.778Z,10.20
2022-10-01T07:18:19.378Z,10.26
2022-10-01T07:20:46.103Z,10.15
2022-10-01T07:23:14.362Z,10.24
2022-10-01T07:25:41.916Z,10.24
2022-10-01T07:28:16.610Z,10.26
2022-10-01T07:30:47.498Z,10.27
2022-10-01T07:33:20.932Z,10.23
2022-10-01T07:35:48.040Z,10.23
2022-10-01T07:38:14.806Z,10.25
2022-10-01T07:40:42.050Z,10.23
2022-10-01T07:43:08.968Z,10.18
2022-10-01T07:45:35.586Z,10.23
2022-10-01T07:48:03.370Z,10.23
2022-10-01T07:50:30.647Z,10.27
2022-10-01T07:52:58.722Z,10.22
2022-10-01T07:55:27.516Z,10.21
2022-10-01T07:57:55.903Z,10.20
2022-10-01T08:00:25.766Z,10.30
2022-10-01T08:02:54.380Z,10.30
2022-10-01T08:05:23.454Z,10.37
2022-10-01T08:07:50.656Z,10.39
2022-10-01T08:10:19.237Z,10.40
2022-10-01T08:12:46.292Z,10.41
2022-10-01T08:15:15.564Z,10.37
2022-10-01T08:17:42.667Z,10.43
2022-10-01T08:20:11.262Z,10.44
2022-10-01T08:22:41.865Z,10.55
2022-10-01T08:25:09.878Z,10.64
2022-10-01T08:27:36.917Z,10.63
2022-10-01T08:30:04.217Z,10.70
2022-10-01T08:32:31.283Z,10.70
2022-10-01T08:35:00.013Z,10.70
2022-10-01T08:37:27.920Z,10.71
2022-10-01T08:39:55.334Z,10.74
2022-10-01T08:42:39.448Z,10.70
2022-10-01T08:45:11.780Z,10.74
2022-10-01T08:47:45.397Z,10.61
2022-10-01T08:50:31.677Z,10.72
2022-10-01T08:53:02.549Z,10.74
2022-10-01T08:55:36.319Z,10.79
2022-10-01T08:58:08.987Z,10.73
2022-10-01T09:00:36.339Z,10.71
2022-10-01T09:03:06.557Z,10.74
2022-10-01T09:05:52.334Z,10.84
2022-10-01T09:08:57.785Z,10.91
2022-10-01T09:11:35.393Z,10.84
2022-10-01T09:14:25.032Z,10.89
2022-10-01T09:16:51.694Z,10.93
2022-10-01T09:19:34.723Z,10.86
2022-10-01T09:22:10.211Z,10.78
2022-10-01T09:24:43.640Z,11.01
2022-10-01T09:27:18.324Z,10.98
2022-10-01T09:30:04.126Z,11.09
2022-10-01T09:32:34.386Z,11.12
2022-10-01T09:35:05.944Z,11.12
2022-10-01T09:37:43.474Z,11.23
2022-10-01T09:40:36.154Z,11.19
2022-10-01T09:43:04.257Z,11.18
2022-10-01T09:45:31.360Z,11.05
2022-10-01T09:48:05.276Z,11.15
2022-10-01T09:50:39.939Z,11.24
2022-10-01T09:53:12.947Z,11.21
2022-10-01T09:55:41.774Z,11.27
2022-10-01T09:58:19.203Z,11.31
2022-10-01T10:00:46.071Z,11.38
2022-10-01T10:03:27.613Z,11.41
2022-10-01T10:05:55.117Z,11.54
2022-10-01T10:08:28.018Z,11.57
2022-10-01T10:10:58.923Z,11.54
2022-10-01T10:13:32.078Z,11.57
2022-10-01T10:16:00.081Z,11.69
2022-10-01T10:18:34.623Z,11.63
2022-10-01T10:21:15.140Z,11.67
2022-10-01T10:23:57.097Z,11.67
2022-10-01T10:26:32.439Z,11.57
2022-10-01T10:29:02.256Z,11.54
2022-10-01T10:31:38.025Z,11.54
2022-10-01T10:34:31.960Z,11.49
2022-10-01T10:37:00.632Z,11.45
2022-10-01T10:39:32.907Z,11.49
2022-10-01T10:42:00.274Z,11.49
2022-10-01T10:44:39.749Z,11.45
2022-10-01T10:47:10.599Z,11.57
2022-10-01T10:50:04.554Z,11.77
2022-10-01T10:52:36.479Z,11.92
2022-10-01T10:55:31.160Z,11.96
2022-10-01T10:58:34.719Z,12.10
2022-10-01T11:01:06.226Z,11.95
2022-10-01T11:03:33.494Z,11.86
2022-10-01T11:06:09.902Z,12.03
2022-10-01T11:08:36.678Z,11.92
2022-10-01T11:11:21.679Z,11.76
2022-10-01T11:13:59.241Z,11.94
2022-10-01T11:16:47.575Z,11.95
2022-10-01T11:19:37.767Z,12.32
2022-10-01T11:22:26.198Z,12.42
2022-10-01T11:25:01.204Z,12.30
2022-10-01T11:28:13.018Z,12.39
2022-10-01T11:31:19.456Z,12.38
2022-10-01T11:34:00.527Z,12.30
2022-10-01T11:36:28.666Z,12.23
2022-10-01T11:38:59.174Z,12.17
2022-10-01T11:41:47.311Z,12.23
2022-10-01T11:44:29.633Z,12.25
2022-10-01T11:47:01.932Z,12.21
2022-10-01T11:49:45.489Z,12.17
2022-10-01T11:52:59.623Z,12.24
2022-10-01T11:56:00.391Z,12.32
2022-10-01T11:59:02.531Z,12.17
2022-10-01T12:01:38.269Z,12.21
2022-10-01T12:04:50.767Z,12.29
2022-10-01T12:07:30.288Z,12.22
2022-10-01T12:10:18.277Z,12.22
2022-10-01T12:12:54.407Z,12.22
2022-10-01T12:15:30.059Z,12.27
2022-10-01T12:18:55.263Z,12.35
2022-10-01T12:21:38.540Z,12.62
2022-10-01T12:24:12.164Z,12.71
2022-10-01T12:27:23.911Z,13.06
2022-10-01T12:30:29.485Z,13.33
2022-10-01T12:33:28.083Z,13.59
2022-10-01T12:36:23.315Z,13.88
2022-10-01T12:39:00.259Z,14.00
2022-10-01T12:41:52.516Z,13.95
2022-10-01T12:44:21.469Z,13.76
2022-10-01T12:47:06.647Z,13.59
2022-10-01T12:49:37.711Z,13.53
2022-10-01T12:52:11.685Z,13.47
2022-10-01T12:54:41.815Z,13.39
2022-10-01T12:57:17.534Z,13.56
2022-10-01T12:59:59.320Z,13.54
2022-10-01T13:02:45.255Z,13.86
2022-10-01T13:05:17.566Z,14.08
2022-10-01T13:07:59.187Z,14.10
2022-10-01T13:11:21.052Z,14.07
2022-10-01T13:13:51.654Z,14.45
2022-10-01T13:16:30.507Z,14.38
2022-10-01T13:19:18.048Z,14.30
2022-10-01T13:22:07.911Z,14.02
2022-10-01T13:25:00.722Z,14.02
2022-10-01T13:27:43.903Z,14.04
2022-10-01T13:30:23.098Z,14.22
2022-10-01T13:32:58.569Z,14.26
2022-10-01T13:35:42.331Z,14.43
2022-10-01T13:38:31.303Z,14.27
2022-10-01T13:41:00.117Z,14.54
2022-10-01T13:43:32.393Z,14.85
2022-10-01T13:46:09.058Z,14.92
2022-10-01T13:48:46.043Z,15.08
2022-10-01T13:51:13.571Z,15.22
2022-10-01T13:53:43.352Z,15.17
2022-10-01T13:56:14.450Z,15.39
2022-10-01T13:58:42.882Z,15.54
2022-10-01T14:01:24.727Z,15.95
2022-10-01T14:04:19.054Z,15.95
2022-10-01T14:06:54.072Z,15.80
2022-10-01T14:09:27.976Z,15.78
2022-10-01T14:12:26.025Z,15.69
2022-10-01T14:15:16.440Z,15.43
2022-10-01T14:17:50.390Z,15.11
2022-10-01T14:20:19.542Z,14.78
2022-10-01T14:23:11.566Z,14.57
2022-10-01T14:25:59.602Z,14.65
2022-10-01T14:28:35.431Z,14.74
2022-10-01T14:31:45.583Z,14.86
2022-10-01T14:34:21.314Z,14.77
2022-10-01T14:36:50.099Z,14.82
2022-10-01T14:39:18.352Z,14.83
2022-10-01T14:41:47.177Z,14.92
2022-10-01T14:44:43.305Z,14.85
2022-10-01T14:47:27.949Z,14.67
2022-10-01T14:49:55.060Z,14.63
2022-10-01T14:52:27.857Z,14.63
2022-10-01T14:55:04.624Z,14.79
2022-10-01T14:57:36.598Z,14.96
2022-10-01T15:00:12.777Z,14.98
2022-10-01T15:02:50.819Z,15.15
2022-10-01T15:05:22.607Z,15.04
2022-10-01T15:07:49.327Z,15.07
2022-10-01T15:10:20.574Z,14.87
2022-10-01T15:12:50.449Z,14.98
2022-10-01T15:15:40.644Z,14.79
2022-10-01T15:18:07.789Z,14.63
2022-10-01T15:20:34.984Z,14.54
2022-10-01T15:23:05.209Z,14.38
2022-10-01T15:25:32.403Z,14.53
2022-10-01T15:27:59.256Z,14.45
2022-10-01T15:30:27.908Z,14.14
2022-10-01T15:32:54.720Z,14.22
2022-10-01T15:35:22.814Z,14.16
2022-10-01T15:37:50.602Z,14.24
2022-10-01T15:40:29.275Z,14.26
2022-10-01T15:43:12.386Z,14.24
2022-10-01T15:45:39.059Z,14.27
2022-10-01T15:48:30.030Z,14.39
2022-10-01T15:51:04.087Z,14.28
2022-10-01T15:53:42.902Z,14.19
2022-10-01T15:56:20.589Z,14.25
2022-10-01T15:59:01.001Z,14.28
2022-10-01T16:01:32.443Z,14.13
2022-10-01T16:04:07.749Z,13.99
2022-10-01T16:06:52.457Z,13.97
2022-10-01T16:09:31.234Z,13.85
2022-10-01T16:12:26.134Z,13.76
2022-10-01T16:15:35.520Z,13.66
2022-10-01T16:18:29.476Z,13.73
2022-10-01T16:21:07.962Z,13.73
2022-10-01T16:23:53.547Z,13.72
2022-10-01T16:26:31.577Z,13.71
2022-10-01T16:29:07.148Z,13.66
2022-10-01T16:32:04.811Z,13.51
2022-10-01T16:34:48.437Z,13.66
2022-10-01T16:37:38.231Z,13.54
2022-10-01T16:40:36.639Z,13.49
2022-10-01T16:43:22.673Z,13.56
2022-10-01T16:46:01.838Z,13.57
2022-10-01T16:48:31.345Z,13.58
2022-10-01T16:51:07.200Z,13.53
2022-10-01T16:53:46.198Z,13.45
2022-10-01T16:56:26.931Z,13.49
2022-10-01T16:59:06.156Z,13.37
2022-10-01T17:01:42.505Z,13.31
2022-10-01T17:04:14.071Z,13.28
2022-10-01T17:06:53.971Z,13.33
2022-10-01T17:09:44.547Z,13.30
2022-10-01T17:12:27.179Z,13.18
2022-10-01T17:15:14.664Z,13.23
2022-10-01T17:18:09.259Z,13.08
2022-10-01T17:20:42.476Z,13.16
2022-10-01T17:23:25.248Z,13.13
2022-10-01T17:26:06.930Z,13.16
2022-10-01T17:28:53.928Z,13.13
2022-10-01T17:31:33.307Z,13.01
2022-10-01T17:34:09.802Z,13.01
2022-10-01T17:36:41.649Z,13.05
2022-10-01T17:39:16.697Z,13.00
2022-10-01T17:41:49.876Z,12.95
2022-10-01T17:44:24.617Z,12.99
2022-10-01T17:47:06.808Z,12.95
2022-10-01T17:49:38.209Z,12.93
2022-10-01T17:52:18.612Z,12.81
2022-10-01T17:54:49.297Z,12.85
2022-10-01T17:57:22.604Z,12.93
2022-10-01T17:59:52.107Z,12.88
2022-10-01T18:02:44.181Z,12.80
2022-10-01T18:05:19.344Z,12.78
2022-10-01T18:07:50.269Z,12.80
2022-10-01T18:10:25.263Z,12.76
2022-10-01T18:12:57.797Z,12.76
2022-10-01T18:15:30.565Z,12.83
2022-10-01T18:19:30.970Z,12.76
2022-10-01T18:21:08.440Z,12.68
2022-10-01T18:23:39.377Z,12.70
2022-10-01T18:26:20.031Z,12.79
2022-10-01T18:29:00.403Z,12.68
2022-10-01T18:31:39.768Z,12.67
2022-10-01T18:34:34.538Z,12.70
2022-10-01T18:37:46.899Z,12.70
2022-10-01T18:40:27.019Z,12.74
2022-10-01T18:43:13.010Z,12.70
2022-10-01T18:46:03.646Z,12.77
2022-10-01T18:49:27.485Z,12.69
2022-10-01T18:52:41.845Z,12.73
2022-10-01T18:55:44.789Z,12.62
2022-10-01T18:58:51.142Z,12.67
2022-10-01T19:01:48.951Z,12.67
2022-10-01T19:04:59.135Z,12.65
2022-10-01T19:07:58.644Z,12.53
2022-10-01T19:11:07.370Z,12.53
2022-10-01T19:14:31.816Z,12.63
2022-10-01T19:17:17.759Z,12.59
2022-10-01T19:20:19.368Z,12.50
2022-10-01T19:23:07.868Z,12.57
2022-10-01T19:25:55.347Z,12.58
2022-10-01T19:28:45.874Z,12.62
2022-10-01T19:31:34.984Z,12.67
2022-10-01T19:34:11.200Z,12.75
2022-10-01T19:36:48.565Z,12.70
2022-10-01T19:39:31.356Z,12.69
2022-10-01T19:42:36.784Z,12.60
2022-10-01T19:45:31.345Z,12.69
2022-10-01T19:48:16.571Z,12.67
2022-10-01T19:50:48.765Z,12.70
2022-10-01T19:53:31.999Z,12.77
2022-10-01T19:56:05.413Z,12.72
2022-10-01T19:58:52.531Z,12.73
2022-10-01T20:01:34.775Z,12.82
2022-10-01T20:04:20.907Z,12.76
2022-10-01T20:07:01.578Z,12.75
2022-10-01T20:10:16.109Z,12.82
2022-10-01T20:13:05.105Z,12.74
2022-10-01T20:16:04.861Z,12.88
2022-10-01T20:18:39.862Z,12.91
2022-10-01T20:21:26.950Z,12.94
2022-10-01T20:24:06.510Z,12.85
2022-10-01T20:26:42.794Z,12.91
2022-10-01T20:29:30.731Z,12.97
2022-10-01T20:32:45.906Z,12.96
2022-10-01T20:35:45.896Z,12.96
2022-10-01T20:38:35.589Z,12.97
2022-10-01T20:41:16.478Z,12.96
2022-10-01T20:43:54.635Z,12.95
2022-10-01T20:46:39.009Z,12.96
2022-10-01T20:49:21.143Z,13.00
2022-10-01T20:52:13.183Z,13.03
2022-10-01T20:54:45.125Z,13.00
2022-10-01T20:57:42.586Z,12.99
2022-10-01T21:00:34.314Z,12.98
2022-10-01T21:03:42.648Z,12.99
2022-10-01T21:06:30.681Z,12.94
2022-10-01T21:09:15.348Z,12.90
2022-10-01T21:12:02.266Z,12.90
2022-10-01T21:14:39.092Z,12.95
2022-10-01T21:17:32.816Z,12.92
2022-10-01T21:20:37.759Z,12.92
2022-10-01T21:23:17.654Z,12.90
2022-10-01T21:26:19.821Z,12.94
2022-10-01T21:29:14.918Z,12.93
2022-10-01T21:31:47.187Z,12.93
2022-10-01T21:34:36.911Z,12.86
2022-10-01T21:37:29.151Z,12.92
2022-10-01T21:40:28.224Z,12.81
2022-10-01T21:43:10.249Z,12.83
2022-10-01T21:46:34.625Z,12.86
2022-10-01T21:49:24.536Z,12.91
2022-10-01T21:52:33.049Z,12.89
2022-10-01T21:55:20.397Z,12.94
2022-10-01T21:58:27.194Z,12.98
2022-10-01T22:01:27.733Z,12.99
2022-10-01T22:04:14.546Z,13.00
2022-10-01T22:07:11.964Z,13.01
2022-10-01T22:09:51.948Z,13.00
2022-10-01T22:12:28.150Z,12.95
2022-10-01T22:15:01.668Z,12.93
2022-10-01T22:17:42.540Z,12.87
2022-10-01T22:20:25.155Z,12.90
2022-10-01T22:22:57.225Z,12.89
2022-10-01T22:25:35.534Z,12.90
2022-10-01T22:28:13.731Z,12.93
2022-10-01T22:30:44.990Z,12.91
2022-10-01T22:33:34.365Z,12.92
2022-10-01T22:36:09.078Z,12.92
2022-10-01T22:38:58.036Z,12.88
2022-10-01T22:41:28.824Z,12.89
2022-10-01T22:44:00.239Z,12.88
2022-10-01T22:47:01.283Z,12.87
2022-10-01T22:50:13.170Z,12.88
2022-10-01T22:53:00.399Z,12.90
2022-10-01T22:56:15.313Z,12.86
2022-10-01T22:59:17.331Z,12.83
2022-10-01T23:02:43.156Z,12.81
2022-10-01T23:05:40.038Z,12.76
2022-10-01T23:08:30.111Z,12.71
2022-10-01T23:11:32.017Z,12.67
2022-10-01T23:14:20.586Z,12.56
2022-10-01T23:17:14.890Z,12.42
2022-10-01T23:20:06.510Z,12.41
2022-10-01T23:22:45.615Z,12.36
2022-10-01T23:25:40.588Z,12.36
2022-10-01T23:28:32.723Z,12.38
2022-10-01T23:31:37.985Z,12.43
2022-10-01T23:34:29.137Z,12.45
2022-10-01T23:37:17.071Z,12.49
2022-10-01T23:39:48.014Z,12.51
2022-10-01T23:42:33.381Z,12.53
2022-10-01T23:45:15.411Z,12.55
2022-10-01T23:47:48.363Z,12.58
2022-10-01T23:50:22.768Z,12.64
2022-10-01T23:53:00.532Z,12.70
2022-10-01T23:56:15.986Z,12.71
2022-10-01T23:59:13.905Z,12.69
